Time;durP1;ratioP1;P1;durP2;ratioP2;P2;SDS_P1;SDS_P2;PMS_P1;PMS_P2;Temp;Humidity;BMP_temperature;BMP_pressure;BME280_temperature;BME280_humidity;BME280_pressure;Samples;Min_cycle;Max_cycle;Signal;HPM_P1;HPM_P2
2022/03/21 00:00:32;;;;;;;23.98;14.70;;;;;;;;;;4984122;28;20188;-87
2022/03/21 00:02:58;;;;;;;24.42;14.55;;;;;;;;;;4982792;28;20195;-86
2022/03/21 00:05:25;;;;;;;19.20;13.55;;;;;;;;;;4984462;28;20211;-85
2022/03/21 00:07:51;;;;;;;20.40;12.75;;;;;;;;;;4999426;28;20223;-85
2022/03/21 00:10:18;;;;;;;20.77;13.18;;;;;;;;;;4985466;28;20176;-86
2022/03/21 00:12:45;;;;;;;23.63;15.68;;;;;;;;;;4986110;28;20203;-87
2022/03/21 00:15:11;;;;;;;19.95;14.23;;;;;;;;;;4984236;28;20183;-87
2022/03/21 00:17:41;;;;;;;20.08;14.10;;;;;;;;;;4984666;28;20192;-87
2022/03/21 00:20:11;;;;;;;20.85;13.85;;;;;;;;;;4986560;28;20211;-87
2022/03/21 00:22:37;;;;;;;22.10;13.00;;;;;;;;;;4986339;28;20179;-87
2022/03/21 00:25:05;;;;;;;20.92;15.13;;;;;;;;;;4985980;28;20255;-87
2022/03/21 00:27:31;;;;;;;21.85;13.52;;;;;;;;;;4982010;28;20200;-87
2022/03/21 00:29:57;;;;;;;21.95;14.20;;;;;;;;;;4975243;28;20211;-87
2022/03/21 00:32:23;;;;;;;22.35;14.32;;;;;;;;;;4984987;28;20207;-87
2022/03/21 00:34:49;;;;;;;23.77;15.40;;;;;;;;;;4985601;28;20176;-84
2022/03/21 00:37:15;;;;;;;23.10;14.38;;;;;;;;;;4986365;28;20179;-87
2022/03/21 00:39:41;;;;;;;21.30;13.32;;;;;;;;;;4981303;28;20177;-86
2022/03/21 00:42:10;;;;;;;22.40;15.18;;;;;;;;;;4992826;28;20188;-87
2022/03/21 00:44:36;;;;;;;23.00;15.10;;;;;;;;;;4986121;28;20183;-87
2022/03/21 00:47:03;;;;;;;23.35;14.68;;;;;;;;;;4985492;28;20629;-86
2022/03/21 00:49:28;;;;;;;29.27;15.70;;;;;;;;;;4984876;28;20178;-87
2022/03/21 00:51:55;;;;;;;20.23;14.10;;;;;;;;;;4976111;28;20298;-87
2022/03/21 00:54:20;;;;;;;21.50;14.13;;;;;;;;;;4989725;28;20185;-86
2022/03/21 00:56:46;;;;;;;25.52;16.63;;;;;;;;;;4985640;28;20626;-87
2022/03/21 00:59:12;;;;;;;21.85;14.65;;;;;;;;;;4985219;28;20210;-87
2022/03/21 01:01:38;;;;;;;27.58;15.15;;;;;;;;;;4984659;28;20184;-86
2022/03/21 01:04:04;;;;;;;23.88;15.27;;;;;;;;;;4981079;28;20192;-88
2022/03/21 01:06:30;;;;;;;25.10;15.13;;;;;;;;;;4989832;28;20685;-87
2022/03/21 01:08:56;;;;;;;26.48;14.63;;;;;;;;;;4985902;28;20188;-88
2022/03/21 01:11:22;;;;;;;23.80;16.48;;;;;;;;;;4985256;28;20228;-86
2022/03/21 01:13:49;;;;;;;24.98;14.88;;;;;;;;;;4986038;28;20175;-87
2022/03/21 01:16:15;;;;;;;20.88;16.05;;;;;;;;;;4983813;28;20180;-87
2022/03/21 01:18:42;;;;;;;21.55;14.52;;;;;;;;;;4981196;28;20181;-87
2022/03/21 01:21:07;;;;;;;22.00;15.07;;;;;;;;;;4976662;28;20188;-87
2022/03/21 01:23:33;;;;;;;21.77;15.27;;;;;;;;;;4985080;28;20187;-87
2022/03/21 01:26:00;;;;;;;20.85;14.57;;;;;;;;;;4986056;28;20191;-87
2022/03/21 01:28:26;;;;;;;26.73;15.90;;;;;;;;;;4984314;28;20172;-87
2022/03/21 01:30:52;;;;;;;24.27;17.83;;;;;;;;;;4984021;28;20215;-86
2022/03/21 01:33:18;;;;;;;26.92;16.80;;;;;;;;;;4985050;28;20208;-87
2022/03/21 01:35:44;;;;;;;21.23;14.48;;;;;;;;;;4975708;28;20204;-87
2022/03/21 01:38:10;;;;;;;27.40;15.93;;;;;;;;;;4982038;28;20179;-87
2022/03/21 01:40:36;;;;;;;29.63;17.60;;;;;;;;;;4986593;28;20172;-87
2022/03/21 01:43:01;;;;;;;23.15;15.57;;;;;;;;;;4980279;28;20188;-87
2022/03/21 01:45:28;;;;;;;27.25;16.80;;;;;;;;;;4980697;28;20184;-86
2022/03/21 01:47:54;;;;;;;23.63;15.98;;;;;;;;;;4985144;28;20188;-87
2022/03/21 01:50:20;;;;;;;19.33;14.95;;;;;;;;;;4985532;28;20187;-87
2022/03/21 01:52:46;;;;;;;28.95;16.85;;;;;;;;;;4985889;28;20203;-87
2022/03/21 01:58:02;;;;;;;25.95;16.48;;;;;;;;;;4985371;28;20219;-86
2022/03/21 02:00:28;;;;;;;29.35;19.52;;;;;;;;;;4984429;28;20180;-87
2022/03/21 02:02:54;;;;;;;26.88;16.92;;;;;;;;;;4983336;28;20184;-87
2022/03/21 02:05:20;;;;;;;21.75;16.17;;;;;;;;;;4983481;28;20199;-87
2022/03/21 02:07:46;;;;;;;26.08;17.27;;;;;;;;;;4985678;28;20260;-87
2022/03/21 02:10:12;;;;;;;29.77;18.00;;;;;;;;;;4999171;28;20180;-87
2022/03/21 02:12:38;;;;;;;29.15;19.17;;;;;;;;;;4982838;28;20224;-87
2022/03/21 02:15:04;;;;;;;29.17;17.98;;;;;;;;;;4982422;28;20243;-86
2022/03/21 02:17:34;;;;;;;24.80;17.63;;;;;;;;;;4982234;28;20255;-86
2022/03/21 02:20:05;;;;;;;31.20;18.48;;;;;;;;;;4983873;28;20645;-86
2022/03/21 02:22:46;;;;;;;28.90;19.20;;;;;;;;;;4985828;28;20199;-88
2022/03/21 02:25:27;;;;;;;28.90;19.63;;;;;;;;;;4984832;28;20186;-88
2022/03/21 02:27:56;;;;;;;32.13;19.05;;;;;;;;;;4979598;28;20189;-88
2022/03/21 02:30:22;;;;;;;29.60;18.95;;;;;;;;;;4977818;28;20191;-87
2022/03/21 02:32:49;;;;;;;28.83;18.73;;;;;;;;;;4982629;28;20219;-87
2022/03/21 02:35:16;;;;;;;35.03;20.52;;;;;;;;;;4968241;28;20279;-87
2022/03/21 02:37:44;;;;;;;30.83;17.90;;;;;;;;;;4983969;28;20243;-87
2022/03/21 02:40:10;;;;;;;28.60;18.10;;;;;;;;;;4996270;28;20255;-87
2022/03/21 02:42:36;;;;;;;23.85;16.40;;;;;;;;;;4979265;28;20226;-88
2022/03/21 02:45:02;;;;;;;29.33;17.98;;;;;;;;;;4983130;28;20195;-86
2022/03/21 02:47:28;;;;;;;31.10;19.05;;;;;;;;;;4983485;28;20187;-87
2022/03/21 02:49:55;;;;;;;31.77;20.48;;;;;;;;;;4984283;28;20246;-87
2022/03/21 02:52:21;;;;;;;25.98;18.48;;;;;;;;;;4983816;28;20211;-87
2022/03/21 02:54:47;;;;;;;26.45;18.88;;;;;;;;;;4979967;28;20556;-88
2022/03/21 02:57:13;;;;;;;24.65;16.85;;;;;;;;;;4990989;28;20641;-87
2022/03/21 02:59:39;;;;;;;28.37;17.67;;;;;;;;;;4998609;28;20176;-86
2022/03/21 03:02:07;;;;;;;32.67;20.08;;;;;;;;;;4984092;28;20438;-87
2022/03/21 03:04:33;;;;;;;26.05;19.60;;;;;;;;;;4972062;28;20512;-88
2022/03/21 03:06:59;;;;;;;31.95;20.10;;;;;;;;;;4981650;28;20215;-88
2022/03/21 03:09:25;;;;;;;31.60;20.30;;;;;;;;;;4978075;28;20185;-88
2022/03/21 03:11:51;;;;;;;28.70;19.10;;;;;;;;;;4987936;28;20228;-87
2022/03/21 03:14:17;;;;;;;33.95;21.80;;;;;;;;;;4984044;28;20242;-87
2022/03/21 03:16:43;;;;;;;26.92;19.00;;;;;;;;;;4984432;28;20179;-87
2022/03/21 03:19:09;;;;;;;30.60;18.75;;;;;;;;;;4998610;28;20188;-88
2022/03/21 03:21:45;;;;;;;34.05;19.05;;;;;;;;;;4983889;28;20188;-88
2022/03/21 03:24:12;;;;;;;33.25;19.05;;;;;;;;;;4986625;28;20247;-87
2022/03/21 03:26:38;;;;;;;27.55;18.55;;;;;;;;;;4985831;28;20199;-86
2022/03/21 03:29:04;;;;;;;32.50;19.92;;;;;;;;;;4987487;28;20184;-86
2022/03/21 03:31:30;;;;;;;25.55;17.90;;;;;;;;;;4988362;28;20724;-88
2022/03/21 03:33:57;;;;;;;31.23;20.98;;;;;;;;;;4983232;28;20196;-87
2022/03/21 03:36:23;;;;;;;28.90;19.67;;;;;;;;;;4981084;28;20183;-87
2022/03/21 03:38:51;;;;;;;28.13;18.35;;;;;;;;;;4982893;28;20184;-86
2022/03/21 03:41:17;;;;;;;30.90;19.75;;;;;;;;;;4978492;28;20469;-87
2022/03/21 03:43:44;;;;;;;29.88;18.30;;;;;;;;;;4984382;28;20234;-87
2022/03/21 03:46:10;;;;;;;36.40;21.17;;;;;;;;;;4986678;28;20216;-87
2022/03/21 03:48:36;;;;;;;29.27;19.23;;;;;;;;;;4987235;28;20291;-83
2022/03/21 03:51:03;;;;;;;31.00;20.10;;;;;;;;;;4986493;28;20191;-87
2022/03/21 03:53:29;;;;;;;32.83;20.13;;;;;;;;;;4986054;28;20183;-87
2022/03/21 03:55:56;;;;;;;28.30;18.95;;;;;;;;;;4986895;28;20580;-88
2022/03/21 03:58:22;;;;;;;26.98;18.15;;;;;;;;;;4986552;28;20183;-87
2022/03/21 04:00:49;;;;;;;32.58;19.98;;;;;;;;;;4987042;28;20188;-86
2022/03/21 04:06:00;;;;;;;30.83;19.95;;;;;;;;;;4977508;28;20214;-88
2022/03/21 04:08:26;;;;;;;32.78;19.13;;;;;;;;;;4985754;28;20180;-86
2022/03/21 04:10:52;;;;;;;30.98;18.55;;;;;;;;;;5000822;28;20219;-87
2022/03/21 04:13:18;;;;;;;35.72;21.10;;;;;;;;;;4987800;28;20218;-87
2022/03/21 04:15:44;;;;;;;35.20;20.20;;;;;;;;;;4981355;28;20180;-86
2022/03/21 04:18:10;;;;;;;32.88;21.40;;;;;;;;;;4978354;28;20187;-87
2022/03/21 04:20:37;;;;;;;31.05;21.27;;;;;;;;;;4986024;28;20199;-88
2022/03/21 04:23:04;;;;;;;31.45;18.25;;;;;;;;;;4986645;28;20199;-85
2022/03/21 04:25:30;;;;;;;33.50;20.10;;;;;;;;;;4985833;28;20211;-86
2022/03/21 04:27:57;;;;;;;37.67;21.10;;;;;;;;;;4998155;28;20219;-87
2022/03/21 04:30:23;;;;;;;29.80;19.92;;;;;;;;;;4981460;28;20207;-86
2022/03/21 04:32:49;;;;;;;28.95;20.42;;;;;;;;;;4986555;28;20211;-86
2022/03/21 04:35:15;;;;;;;29.17;19.80;;;;;;;;;;4985398;28;20176;-87
2022/03/21 04:37:41;;;;;;;29.88;20.88;;;;;;;;;;4987207;28;20235;-87
2022/03/21 04:40:08;;;;;;;33.00;19.35;;;;;;;;;;4985775;28;20243;-87
2022/03/21 04:42:35;;;;;;;30.80;21.13;;;;;;;;;;4985353;28;20708;-87
2022/03/21 04:45:01;;;;;;;31.60;19.70;;;;;;;;;;4986305;28;20196;-88
2022/03/21 04:47:27;;;;;;;33.80;22.13;;;;;;;;;;4984356;28;20646;-87
2022/03/21 04:49:53;;;;;;;30.95;19.25;;;;;;;;;;4986444;28;20179;-87
2022/03/21 04:52:19;;;;;;;32.53;20.73;;;;;;;;;;4985086;28;20199;-88
2022/03/21 04:54:44;;;;;;;32.80;20.02;;;;;;;;;;4985581;28;20188;-87
2022/03/21 04:57:12;;;;;;;30.60;21.40;;;;;;;;;;4984596;28;20191;-87
2022/03/21 04:59:38;;;;;;;30.38;18.95;;;;;;;;;;4985073;28;20443;-88
2022/03/21 05:02:04;;;;;;;33.58;21.52;;;;;;;;;;5000082;28;20216;-88
2022/03/21 05:04:31;;;;;;;29.92;20.50;;;;;;;;;;4986546;28;20183;-88
2022/03/21 05:06:57;;;;;;;31.08;18.30;;;;;;;;;;4985140;28;20203;-88
2022/03/21 05:09:23;;;;;;;39.97;21.33;;;;;;;;;;4981301;28;20192;-88
2022/03/21 05:11:49;;;;;;;30.27;20.55;;;;;;;;;;4989175;28;20227;-84
2022/03/21 05:14:18;;;;;;;33.33;21.85;;;;;;;;;;5001009;28;20176;-88
2022/03/21 05:16:45;;;;;;;26.63;18.48;;;;;;;;;;4984840;28;20176;-88
2022/03/21 05:19:11;;;;;;;29.58;19.75;;;;;;;;;;4997497;28;20188;-88
2022/03/21 05:21:37;;;;;;;39.10;22.80;;;;;;;;;;4981223;28;20180;-88
2022/03/21 05:32:17;;;;;;;28.13;19.42;;;;;;;;;;4981118;28;20265;-88
2022/03/21 05:37:47;;;;;;;32.63;21.20;;;;;;;;;;5002096;28;20418;-85
2022/03/21 05:40:32;;;;;;;28.23;20.60;;;;;;;;;;4984442;28;20183;-87
2022/03/21 05:42:58;;;;;;;31.27;19.88;;;;;;;;;;5000792;28;20438;-88
2022/03/21 05:45:24;;;;;;;30.02;19.13;;;;;;;;;;4985203;28;20186;-86
2022/03/21 05:50:36;;;;;;;29.85;18.85;;;;;;;;;;5002390;28;20275;-86
2022/03/21 05:53:02;;;;;;;34.05;19.95;;;;;;;;;;5000774;28;20215;-87
2022/03/21 05:55:32;;;;;;;33.08;19.58;;;;;;;;;;4985732;28;20190;-87
2022/03/21 05:57:58;;;;;;;39.70;20.85;;;;;;;;;;4999590;28;20183;-88
2022/03/21 06:00:25;;;;;;;37.85;18.20;;;;;;;;;;4985906;28;20221;-84
2022/03/21 06:02:51;;;;;;;38.60;20.23;;;;;;;;;;5001080;28;20230;-87
2022/03/21 06:05:21;;;;;;;32.65;22.13;;;;;;;;;;5002518;28;20222;-86
2022/03/21 06:07:48;;;;;;;30.33;19.40;;;;;;;;;;4980483;28;20184;-86
2022/03/21 06:10:14;;;;;;;32.30;19.52;;;;;;;;;;4985227;28;20240;-86
2022/03/21 06:12:41;;;;;;;30.40;20.42;;;;;;;;;;4980337;28;20279;-84
2022/03/21 06:15:08;;;;;;;35.60;20.75;;;;;;;;;;4991105;28;20259;-87
2022/03/21 06:17:38;;;;;;;30.30;19.35;;;;;;;;;;4982448;28;20207;-87
2022/03/21 06:20:06;;;;;;;34.30;20.38;;;;;;;;;;4998706;28;20234;-87
2022/03/21 06:22:32;;;;;;;30.52;18.92;;;;;;;;;;4984238;28;20183;-87
2022/03/21 06:24:58;;;;;;;30.35;19.50;;;;;;;;;;4980088;28;20192;-87
2022/03/21 06:27:24;;;;;;;31.35;19.58;;;;;;;;;;4988442;28;20279;-88
2022/03/21 06:29:50;;;;;;;28.30;18.92;;;;;;;;;;4973682;28;20223;-87
2022/03/21 06:32:16;;;;;;;25.15;17.38;;;;;;;;;;4984194;28;20582;-88
2022/03/21 06:34:42;;;;;;;32.72;20.30;;;;;;;;;;4985347;28;20183;-88
2022/03/21 06:37:09;;;;;;;31.52;21.48;;;;;;;;;;4999086;28;20184;-87
2022/03/21 06:39:36;;;;;;;26.80;18.70;;;;;;;;;;4982335;28;20179;-88
2022/03/21 06:42:02;;;;;;;30.40;19.52;;;;;;;;;;4981330;28;20193;-86
2022/03/21 06:44:28;;;;;;;34.70;20.58;;;;;;;;;;4982345;28;20207;-86
2022/03/21 06:46:56;;;;;;;29.77;18.45;;;;;;;;;;4983954;28;20187;-86
2022/03/21 06:49:27;;;;;;;25.85;18.23;;;;;;;;;;4984249;28;20178;-86
2022/03/21 06:51:53;;;;;;;36.45;21.08;;;;;;;;;;4982554;28;20219;-86
2022/03/21 06:54:19;;;;;;;31.75;22.00;;;;;;;;;;4984276;28;20186;-87
2022/03/21 06:56:45;;;;;;;31.85;21.23;;;;;;;;;;4983023;28;20661;-85
2022/03/21 06:59:12;;;;;;;31.33;19.33;;;;;;;;;;4986899;28;20230;-87
2022/03/21 07:01:38;;;;;;;33.95;18.88;;;;;;;;;;4987694;28;20180;-87
2022/03/21 07:04:04;;;;;;;32.15;19.95;;;;;;;;;;4987106;28;20194;-86
2022/03/21 07:06:30;;;;;;;30.95;20.55;;;;;;;;;;4983206;28;20263;-85
2022/03/21 07:08:57;;;;;;;38.33;19.98;;;;;;;;;;4977684;28;20587;-82
2022/03/21 07:11:23;;;;;;;29.42;19.88;;;;;;;;;;4987719;28;20227;-86
2022/03/21 07:13:49;;;;;;;33.80;22.70;;;;;;;;;;5000403;28;20168;-85
2022/03/21 07:16:16;;;;;;;35.45;21.30;;;;;;;;;;4980882;28;20180;-85
2022/03/21 07:18:46;;;;;;;34.83;21.38;;;;;;;;;;4981182;28;20176;-86
2022/03/21 07:21:14;;;;;;;34.33;20.50;;;;;;;;;;4987832;28;20176;-86
2022/03/21 07:23:40;;;;;;;35.10;21.92;;;;;;;;;;4985908;28;20246;-85
2022/03/21 07:26:06;;;;;;;34.05;21.02;;;;;;;;;;4987169;28;20191;-85
2022/03/21 07:28:32;;;;;;;37.00;21.55;;;;;;;;;;4986196;28;20184;-85
2022/03/21 07:30:58;;;;;;;32.30;20.60;;;;;;;;;;4986180;28;20188;-84
2022/03/21 07:33:24;;;;;;;30.77;20.63;;;;;;;;;;4987164;28;20478;-86
2022/03/21 07:35:53;;;;;;;31.90;21.00;;;;;;;;;;4987195;28;20196;-85
2022/03/21 07:38:19;;;;;;;34.22;20.35;;;;;;;;;;4984559;28;20230;-85
2022/03/21 07:40:49;;;;;;;29.40;19.02;;;;;;;;;;5002205;28;20661;-83
2022/03/21 07:43:15;;;;;;;33.65;21.98;;;;;;;;;;4986469;28;20238;-84
2022/03/21 07:48:27;;;;;;;30.83;21.80;;;;;;;;;;4984454;28;20230;-87
2022/03/21 07:50:54;;;;;;;33.45;22.70;;;;;;;;;;4986047;28;20187;-86
2022/03/21 07:53:20;;;;;;;35.38;22.63;;;;;;;;;;4986832;28;20211;-86
2022/03/21 07:55:46;;;;;;;36.60;22.85;;;;;;;;;;4987798;28;20445;-87
2022/03/21 07:58:12;;;;;;;35.42;23.13;;;;;;;;;;4987073;28;20187;-87
2022/03/21 08:00:41;;;;;;;39.63;22.25;;;;;;;;;;4982302;28;20185;-87
2022/03/21 08:03:09;;;;;;;40.30;23.73;;;;;;;;;;4991785;28;20533;-85
2022/03/21 08:05:35;;;;;;;38.33;23.88;;;;;;;;;;4981421;28;20657;-87
2022/03/21 08:08:01;;;;;;;31.77;21.17;;;;;;;;;;4985521;28;20184;-87
2022/03/21 08:10:29;;;;;;;30.70;21.20;;;;;;;;;;4984588;28;20187;-87
2022/03/21 08:12:56;;;;;;;31.55;20.48;;;;;;;;;;4981628;28;20466;-86
2022/03/21 08:15:22;;;;;;;35.85;24.30;;;;;;;;;;4980618;28;20255;-86
2022/03/21 08:17:49;;;;;;;39.30;24.10;;;;;;;;;;4984215;28;20198;-86
2022/03/21 08:20:16;;;;;;;31.98;22.33;;;;;;;;;;4986116;28;20180;-85
2022/03/21 08:22:43;;;;;;;35.60;24.80;;;;;;;;;;4985347;28;20894;-85
2022/03/21 08:25:10;;;;;;;35.25;23.25;;;;;;;;;;4982798;28;20191;-87
2022/03/21 08:27:36;;;;;;;35.05;22.77;;;;;;;;;;4983487;28;20180;-85
2022/03/21 08:30:03;;;;;;;38.05;22.27;;;;;;;;;;4983680;28;20279;-87
2022/03/21 08:32:29;;;;;;;37.70;26.67;;;;;;;;;;4984198;28;20204;-89
2022/03/21 08:34:55;;;;;;;35.55;23.13;;;;;;;;;;5001658;28;20203;-85
2022/03/21 08:37:25;;;;;;;31.95;23.25;;;;;;;;;;4983105;28;20173;-89
2022/03/21 08:39:51;;;;;;;37.47;24.13;;;;;;;;;;4986520;28;20270;-88
2022/03/21 08:42:17;;;;;;;36.63;22.55;;;;;;;;;;4983043;28;20194;-90
2022/03/21 08:44:43;;;;;;;34.38;23.70;;;;;;;;;;4990207;28;20180;-88
2022/03/21 08:47:09;;;;;;;36.13;25.40;;;;;;;;;;4984619;28;20275;-89
2022/03/21 08:49:37;;;;;;;32.33;23.83;;;;;;;;;;4985773;28;20214;-88
2022/03/21 08:52:06;;;;;;;40.30;24.48;;;;;;;;;;4974769;28;20273;-89
2022/03/21 08:54:31;;;;;;;39.10;23.92;;;;;;;;;;4994456;28;20183;-89
2022/03/21 08:56:58;;;;;;;32.97;23.73;;;;;;;;;;4984864;28;20206;-88
2022/03/21 08:59:24;;;;;;;31.27;22.15;;;;;;;;;;4999063;28;20267;-89
2022/03/21 09:01:51;;;;;;;39.65;24.85;;;;;;;;;;4998565;28;20185;-88
2022/03/21 09:04:17;;;;;;;30.05;21.20;;;;;;;;;;4984439;28;20176;-88
2022/03/21 09:06:43;;;;;;;34.25;22.13;;;;;;;;;;4980674;28;20195;-90
2022/03/21 09:09:09;;;;;;;36.08;23.90;;;;;;;;;;4993398;28;20184;-88
2022/03/21 09:11:37;;;;;;;32.83;21.67;;;;;;;;;;4998352;28;20672;-87
2022/03/21 09:14:03;;;;;;;35.10;25.42;;;;;;;;;;5000173;28;20184;-86
2022/03/21 09:16:29;;;;;;;32.50;22.52;;;;;;;;;;4982314;28;20188;-88
2022/03/21 09:18:55;;;;;;;31.50;22.95;;;;;;;;;;4984118;28;20247;-89
2022/03/21 09:21:21;;;;;;;34.53;23.42;;;;;;;;;;4982306;28;20190;-88
2022/03/21 09:23:47;;;;;;;37.50;26.05;;;;;;;;;;4984643;28;20184;-86
2022/03/21 09:26:13;;;;;;;33.65;23.17;;;;;;;;;;4982207;28;20179;-88
2022/03/21 09:28:43;;;;;;;29.80;22.33;;;;;;;;;;4985920;28;20545;-86
2022/03/21 09:31:10;;;;;;;33.85;24.00;;;;;;;;;;4980651;28;20185;-86
2022/03/21 09:33:37;;;;;;;36.00;24.40;;;;;;;;;;4981974;28;20267;-87
2022/03/21 09:36:04;;;;;;;33.28;24.45;;;;;;;;;;4982966;28;20191;-88
2022/03/21 09:38:31;;;;;;;36.47;24.30;;;;;;;;;;4985990;28;20191;-87
2022/03/21 09:40:57;;;;;;;36.35;24.35;;;;;;;;;;4984868;28;20179;-88
2022/03/21 09:43:26;;;;;;;35.72;25.15;;;;;;;;;;4983912;28;20176;-89
2022/03/21 09:45:54;;;;;;;37.47;25.80;;;;;;;;;;4984699;28;20238;-88
2022/03/21 09:48:20;;;;;;;42.45;24.33;;;;;;;;;;4998582;28;21699;-89
2022/03/21 09:50:46;;;;;;;32.93;24.33;;;;;;;;;;4982358;28;20195;-87
2022/03/21 09:53:16;;;;;;;31.35;22.20;;;;;;;;;;4983372;28;20459;-88
2022/03/21 09:55:42;;;;;;;33.33;21.23;;;;;;;;;;4984793;28;20204;-87
2022/03/21 09:58:10;;;;;;;30.48;21.88;;;;;;;;;;4984526;28;20241;-88
2022/03/21 10:00:41;;;;;;;29.40;19.48;;;;;;;;;;4984285;28;20176;-86
2022/03/21 10:03:07;;;;;;;31.25;21.00;;;;;;;;;;4983401;28;20192;-87
2022/03/21 10:05:41;;;;;;;29.45;19.60;;;;;;;;;;4983479;28;20183;-87
2022/03/21 10:08:10;;;;;;;28.08;20.17;;;;;;;;;;4984565;28;20182;-87
2022/03/21 10:10:36;;;;;;;23.92;17.30;;;;;;;;;;4985064;28;20479;-86
2022/03/21 10:13:03;;;;;;;26.20;18.13;;;;;;;;;;4979573;28;20207;-87
2022/03/21 10:15:29;;;;;;;31.63;21.15;;;;;;;;;;4978859;28;20177;-84
2022/03/21 10:18:05;;;;;;;28.27;20.05;;;;;;;;;;4984332;28;20321;-87
2022/03/21 10:20:34;;;;;;;26.08;19.00;;;;;;;;;;4982277;28;20179;-87
2022/03/21 10:23:19;;;;;;;24.42;17.63;;;;;;;;;;4998333;28;20180;-87
2022/03/21 10:25:46;;;;;;;29.15;19.77;;;;;;;;;;4985795;28;20219;-89
2022/03/21 10:28:32;;;;;;;21.38;15.50;;;;;;;;;;4996492;28;20188;-94
2022/03/21 10:30:58;;;;;;;23.75;16.33;;;;;;;;;;4980970;28;20208;-88
2022/03/21 10:33:24;;;;;;;20.50;15.10;;;;;;;;;;4979787;28;20208;-87
2022/03/21 10:35:50;;;;;;;11.93;9.27;;;;;;;;;;4973809;28;20568;-85
2022/03/21 10:38:29;;;;;;;10.35;9.20;;;;;;;;;;4984622;28;20189;-88
2022/03/21 10:40:55;;;;;;;14.82;9.60;;;;;;;;;;4979852;28;20239;-86
2022/03/21 10:43:21;;;;;;;14.10;10.85;;;;;;;;;;4983608;28;20808;-85
2022/03/21 10:45:47;;;;;;;17.03;11.17;;;;;;;;;;4983938;28;20505;-86
2022/03/21 10:48:20;;;;;;;11.23;8.75;;;;;;;;;;4982415;28;20486;-86
2022/03/21 10:50:47;;;;;;;11.27;7.35;;;;;;;;;;4982975;28;20187;-86
2022/03/21 10:53:14;;;;;;;11.15;8.57;;;;;;;;;;4983886;28;20222;-86
2022/03/21 10:55:41;;;;;;;12.07;9.15;;;;;;;;;;4983177;28;20178;-86
2022/03/21 10:58:07;;;;;;;10.65;8.10;;;;;;;;;;4983121;28;20192;-87
2022/03/21 11:00:34;;;;;;;9.57;7.43;;;;;;;;;;4983464;28;20187;-87
2022/03/21 11:03:05;;;;;;;7.80;6.35;;;;;;;;;;4982734;28;20203;-86
2022/03/21 11:05:31;;;;;;;8.48;6.40;;;;;;;;;;4982682;28;20176;-87
2022/03/21 11:07:57;;;;;;;7.63;6.43;;;;;;;;;;4997296;28;20173;-93
2022/03/21 11:10:24;;;;;;;8.25;5.30;;;;;;;;;;4982813;28;20183;-87
2022/03/21 11:12:50;;;;;;;6.95;5.30;;;;;;;;;;4983984;28;20636;-87
2022/03/21 11:15:17;;;;;;;8.65;5.55;;;;;;;;;;4983319;28;20211;-89
2022/03/21 11:17:43;;;;;;;9.70;4.35;;;;;;;;;;4983744;28;20196;-86
2022/03/21 11:20:10;;;;;;;5.38;4.75;;;;;;;;;;4983658;28;20195;-90
2022/03/21 11:22:37;;;;;;;6.45;5.50;;;;;;;;;;4983483;28;20207;-84
2022/03/21 11:25:08;;;;;;;4.97;4.35;;;;;;;;;;4978989;28;20195;-86
2022/03/21 11:27:46;;;;;;;12.88;4.65;;;;;;;;;;4978365;28;20184;-85
2022/03/21 11:30:15;;;;;;;7.22;4.90;;;;;;;;;;4982020;28;20191;-84
2022/03/21 11:32:44;;;;;;;5.25;4.13;;;;;;;;;;4983678;28;20210;-86
2022/03/21 11:35:11;;;;;;;4.60;4.00;;;;;;;;;;4984127;28;20188;-92
2022/03/21 11:37:38;;;;;;;5.47;4.20;;;;;;;;;;4984197;28;20242;-83
2022/03/21 11:40:23;;;;;;;5.85;4.65;;;;;;;;;;4980800;28;20183;-85
2022/03/21 11:42:49;;;;;;;6.70;4.82;;;;;;;;;;4980822;28;20184;-83
2022/03/21 11:45:25;;;;;;;5.40;4.10;;;;;;;;;;4985136;28;20195;-90
2022/03/21 11:48:11;;;;;;;6.30;5.70;;;;;;;;;;4976061;28;20240;-82
2022/03/21 11:50:37;;;;;;;4.88;4.30;;;;;;;;;;4985097;28;20190;-85
2022/03/21 11:53:07;;;;;;;5.75;4.25;;;;;;;;;;5001500;28;20201;-82
2022/03/21 11:55:43;;;;;;;6.00;4.70;;;;;;;;;;4986954;28;20195;-83
2022/03/21 11:58:28;;;;;;;6.40;3.70;;;;;;;;;;4986503;28;20668;-90
2022/03/21 12:01:12;;;;;;;6.57;4.70;;;;;;;;;;4981615;28;20196;-89
2022/03/21 12:03:38;;;;;;;5.17;4.10;;;;;;;;;;4990925;28;20571;-87
2022/03/21 12:06:20;;;;;;;4.57;4.13;;;;;;;;;;4992172;28;20445;-86
2022/03/21 12:08:48;;;;;;;4.43;4.03;;;;;;;;;;4985654;28;20533;-83
2022/03/21 12:11:36;;;;;;;7.20;3.97;;;;;;;;;;5000146;28;20451;-85
2022/03/21 12:14:36;;;;;;;4.83;4.40;;;;;;;;;;4984908;28;20410;-84
2022/03/21 12:17:02;;;;;;;4.50;3.80;;;;;;;;;;4983198;28;20397;-82
2022/03/21 12:19:58;;;;;;;5.40;4.20;;;;;;;;;;4985650;28;20936;-83
2022/03/21 12:22:30;;;;;;;5.27;4.10;;;;;;;;;;5000557;28;20400;-83
2022/03/21 12:24:56;;;;;;;4.83;4.30;;;;;;;;;;4985018;28;20413;-84
2022/03/21 12:27:40;;;;;;;6.07;4.60;;;;;;;;;;4985979;28;20504;-85
2022/03/21 12:30:23;;;;;;;5.70;4.70;;;;;;;;;;4984006;28;20832;-84
2022/03/21 12:32:59;;;;;;;5.40;4.87;;;;;;;;;;5000968;28;20441;-82
2022/03/21 12:35:42;;;;;;;6.60;5.87;;;;;;;;;;4984831;28;20790;-83
2022/03/21 12:38:26;;;;;;;6.47;4.77;;;;;;;;;;4985624;28;20422;-86
2022/03/21 12:40:58;;;;;;;6.10;5.50;;;;;;;;;;4981891;28;20443;-85
2022/03/21 12:43:26;;;;;;;6.87;6.13;;;;;;;;;;4986325;28;20488;-85
2022/03/21 12:46:08;;;;;;;6.13;5.37;;;;;;;;;;4983912;28;20453;-83
2022/03/21 12:48:35;;;;;;;7.00;5.67;;;;;;;;;;4984699;28;20493;-83
2022/03/21 12:51:02;;;;;;;6.30;5.70;;;;;;;;;;4984865;28;20499;-84
2022/03/21 12:53:42;;;;;;;5.83;5.33;;;;;;;;;;4984669;28;20543;-83
2022/03/21 12:56:08;;;;;;;6.73;4.50;;;;;;;;;;4980528;28;20446;-82
2022/03/21 12:58:35;;;;;;;5.60;5.10;;;;;;;;;;4981218;28;20507;-85
2022/03/21 13:01:03;;;;;;;6.10;5.50;;;;;;;;;;4971054;28;20447;-85
2022/03/21 13:03:29;;;;;;;6.13;5.50;;;;;;;;;;4978865;28;21024;-84
2022/03/21 13:11:36;;;;;;;7.30;5.43;;;;;;;;;;4970825;28;20461;-88
2022/03/21 13:14:19;;;;;;;6.10;5.60;;;;;;;;;;4983251;28;20478;-87
2022/03/21 13:16:53;;;;;;;6.27;5.67;;;;;;;;;;4995930;28;20441;-85
2022/03/21 13:19:20;;;;;;;7.17;6.50;;;;;;;;;;4985726;28;20419;-82
2022/03/21 13:21:46;;;;;;;6.50;5.90;;;;;;;;;;4979205;28;20447;-83
2022/03/21 13:24:12;;;;;;;6.10;5.60;;;;;;;;;;4976437;28;20449;-82
2022/03/21 13:26:38;;;;;;;6.30;5.80;;;;;;;;;;4984661;28;20434;-82
2022/03/21 13:29:09;;;;;;;6.73;5.80;;;;;;;;;;4984886;28;20498;-86
2022/03/21 13:31:35;;;;;;;5.70;5.20;;;;;;;;;;4983328;28;20463;-81
2022/03/21 13:34:03;;;;;;;6.27;5.67;;;;;;;;;;4984858;28;20443;-82
2022/03/21 13:36:29;;;;;;;6.57;6.07;;;;;;;;;;4983439;28;20435;-82
2022/03/21 13:39:09;;;;;;;5.70;5.13;;;;;;;;;;4984568;28;20458;-80
2022/03/21 13:41:51;;;;;;;6.00;5.50;;;;;;;;;;4983381;28;20431;-80
2022/03/21 13:44:17;;;;;;;6.07;5.47;;;;;;;;;;4983563;28;20435;-84
2022/03/21 13:47:19;;;;;;;6.00;4.97;;;;;;;;;;4983008;28;20521;-84
2022/03/21 13:49:56;;;;;;;5.73;5.13;;;;;;;;;;4962515;28;21079;-86
2022/03/21 13:52:46;;;;;;;5.97;5.37;;;;;;;;;;4963056;29;20502;-85
2022/03/21 13:55:25;;;;;;;6.47;5.83;;;;;;;;;;4957925;29;20447;-79
2022/03/21 13:57:58;;;;;;;6.97;6.23;;;;;;;;;;4948932;28;20526;-81
2022/03/21 14:00:26;;;;;;;6.20;5.60;;;;;;;;;;4958350;28;20432;-82
2022/03/21 14:02:52;;;;;;;6.13;5.53;;;;;;;;;;4961243;28;20567;-82
2022/03/21 14:05:20;;;;;;;7.23;6.53;;;;;;;;;;4955728;28;20840;-81
2022/03/21 14:07:51;;;;;;;5.83;5.33;;;;;;;;;;4963198;28;20508;-84
2022/03/21 14:10:24;;;;;;;6.70;6.10;;;;;;;;;;4954343;29;20459;-82
2022/03/21 14:12:51;;;;;;;6.67;6.07;;;;;;;;;;4959315;29;20931;-84
2022/03/21 14:15:18;;;;;;;6.40;5.80;;;;;;;;;;4946589;29;20443;-85
2022/03/21 14:17:45;;;;;;;6.67;5.97;;;;;;;;;;4946450;29;20465;-82
2022/03/21 14:20:12;;;;;;;6.60;5.33;;;;;;;;;;4945310;29;20436;-82
2022/03/21 14:22:38;;;;;;;6.30;5.70;;;;;;;;;;4947717;28;20495;-80
2022/03/21 14:26:29;;;;;;;7.13;6.40;;;;;;;;;;4983773;28;20485;-80
2022/03/21 14:27:50;;;;;;;6.77;6.17;;;;;;;;;;4983434;28;20447;-80
2022/03/21 14:30:16;;;;;;;7.40;6.53;;;;;;;;;;4984637;28;20410;-79
2022/03/21 14:32:42;;;;;;;7.77;7.17;;;;;;;;;;4981650;28;20936;-80
2022/03/21 14:35:08;;;;;;;6.60;6.00;;;;;;;;;;4979076;28;20704;-79
2022/03/21 14:37:34;;;;;;;10.20;6.70;;;;;;;;;;4979959;28;20433;-78
2022/03/21 14:40:00;;;;;;;8.30;6.60;;;;;;;;;;4980408;28;20434;-80
2022/03/21 14:42:26;;;;;;;6.23;5.63;;;;;;;;;;4980728;28;20474;-81
2022/03/21 14:44:52;;;;;;;7.77;7.07;;;;;;;;;;4982695;28;20451;-78
2022/03/21 14:47:18;;;;;;;9.40;7.43;;;;;;;;;;4980430;28;20439;-80
2022/03/21 14:49:44;;;;;;;8.87;7.63;;;;;;;;;;4984334;28;20431;-79
2022/03/21 14:52:10;;;;;;;8.67;7.77;;;;;;;;;;4981951;28;20508;-79
2022/03/21 14:54:37;;;;;;;10.33;7.13;;;;;;;;;;4978344;28;20465;-79
2022/03/21 14:57:03;;;;;;;7.93;6.73;;;;;;;;;;4989278;28;20438;-80